sensor_id;sensor_type;location;lat;lon;timestamp;pressure;altitude;pressure_sealevel;temperature;humidity
35519;BME280;21627;48.216;16.482;2022-10-17T00:00:58;100785.53;;;11.56;100.00
35519;BME280;21627;48.216;16.482;2022-10-17T00:03:26;100771.63;;;11.47;100.00
35519;BME280;21627;48.216;16.482;2022-10-17T00:05:54;100788.94;;;11.50;100.00
35519;BME280;21627;48.216;16.482;2022-10-17T00:08:22;100794.91;;;11.46;100.00
35519;BME280;21627;48.216;16.482;2022-10-17T00:11:06;100789.69;;;11.43;100.00
35519;BME280;21627;48.216;16.482;2022-10-17T00:13:34;100782.75;;;11.40;100.00
35519;BME280;21627;48.216;16.482;2022-10-17T00:16:01;100772.34;;;11.36;100.00
35519;BME280;21627;48.216;16.482;2022-10-17T00:18:28;100788.75;;;11.38;100.00
35519;BME280;21627;48.216;16.482;2022-10-17T00:20:55;100785.28;;;11.34;100.00
35519;BME280;21627;48.216;16.482;2022-10-17T00:23:23;100794.81;;;11.37;100.00
35519;BME280;21627;48.216;16.482;2022-10-17T00:26:05;100793.00;;;11.33;100.00
35519;BME280;21627;48.216;16.482;2022-10-17T00:28:32;100785.25;;;11.33;100.00
35519;BME280;21627;48.216;16.482;2022-10-17T00:31:03;100786.09;;;11.32;100.00
35519;BME280;21627;48.216;16.482;2022-10-17T00:33:33;100794.75;;;11.32;100.00
35519;BME280;21627;48.216;16.482;2022-10-17T00:36:19;100803.34;;;11.30;100.00
35519;BME280;21627;48.216;16.482;2022-10-17T00:38:54;100797.19;;;11.21;100.00
35519;BME280;21627;48.216;16.482;2022-10-17T00:41:28;100796.28;;;11.19;100.00
35519;BME280;21627;48.216;16.482;2022-10-17T00:44:04;100805.84;;;11.25;100.00
35519;BME280;21627;48.216;16.482;2022-10-17T00:46:33;100796.19;;;11.13;100.00
35519;BME280;21627;48.216;16.482;2022-10-17T00:49:09;100804.81;;;11.12;100.00
35519;BME280;21627;48.216;16.482;2022-10-17T00:51:44;100810.00;;;11.12;100.00
35519;BME280;21627;48.216;16.482;2022-10-17T00:54:15;100796.94;;;11.06;100.00
35519;BME280;21627;48.216;16.482;2022-10-17T00:56:44;100791.72;;;11.01;100.00
35519;BME280;21627;48.216;16.482;2022-10-17T00:59:14;100800.41;;;11.07;100.00
35519;BME280;21627;48.216;16.482;2022-10-17T01:02:07;100794.28;;;11.00;100.00
35519;BME280;21627;48.216;16.482;2022-10-17T01:04:36;100785.59;;;10.98;100.00
35519;BME280;21627;48.216;16.482;2022-10-17T01:07:06;100793.41;;;11.01;100.00
35519;BME280;21627;48.216;16.482;2022-10-17T01:09:33;100776.91;;;10.93;100.00
35519;BME280;21627;48.216;16.482;2022-10-17T01:12:28;100784.75;;;10.97;100.00
35519;BME280;21627;48.216;16.482;2022-10-17T01:15:22;100783.84;;;10.95;100.00
35519;BME280;21627;48.216;16.482;2022-10-17T01:18:48;100779.50;;;10.91;100.00
35519;BME280;21627;48.216;16.482;2022-10-17T01:33:31;100772.38;;;10.76;100.00
35519;BME280;21627;48.216;16.482;2022-10-17T01:36:11;100778.41;;;10.77;100.00
35519;BME280;21627;48.216;16.482;2022-10-17T01:39:12;100768.78;;;10.70;100.00
35519;BME280;21627;48.216;16.482;2022-10-17T01:42:22;100774.06;;;10.76;100.00
35519;BME280;21627;48.216;16.482;2022-10-17T01:45:21;100772.28;;;10.73;100.00
35519;BME280;21627;48.216;16.482;2022-10-17T01:47:49;100772.31;;;10.75;100.00
35519;BME280;21627;48.216;16.482;2022-10-17T01:50:24;100754.09;;;10.67;100.00
35519;BME280;21627;48.216;16.482;2022-10-17T01:53:00;100754.97;;;10.66;100.00
35519;BME280;21627;48.216;16.482;2022-10-17T01:55:35;100754.09;;;10.67;100.00
35519;BME280;21627;48.216;16.482;2022-10-17T01:58:19;100761.03;;;10.70;100.00
35519;BME280;21627;48.216;16.482;2022-10-17T02:00:48;100761.00;;;10.68;100.00
35519;BME280;21627;48.216;16.482;2022-10-17T02:03:18;100760.13;;;10.68;100.00
35519;BME280;21627;48.216;16.482;2022-10-17T02:05:47;100758.41;;;10.67;100.00
35519;BME280;21627;48.216;16.482;2022-10-17T02:08:27;100747.91;;;10.57;100.00
35519;BME280;21627;48.216;16.482;2022-10-17T02:11:13;100734.00;;;10.49;100.00
35519;BME280;21627;48.216;16.482;2022-10-17T02:14:27;100756.56;;;10.59;100.00
35519;BME280;21627;48.216;16.482;2022-10-17T02:20:08;100749.56;;;10.52;100.00
35519;BME280;21627;48.216;16.482;2022-10-17T02:23:23;100759.00;;;10.50;100.00
35519;BME280;21627;48.216;16.482;2022-10-17T02:26:08;100751.97;;;10.43;100.00
35519;BME280;21627;48.216;16.482;2022-10-17T02:31:25;100759.81;;;10.46;100.00
35519;BME280;21627;48.216;16.482;2022-10-17T02:34:03;100755.38;;;10.40;100.00
35519;BME280;21627;48.216;16.482;2022-10-17T02:36:38;100774.41;;;10.44;100.00
35519;BME280;21627;48.216;16.482;2022-10-17T02:39:07;100777.84;;;10.43;100.00
35519;BME280;21627;48.216;16.482;2022-10-17T02:41:35;100779.53;;;10.41;100.00
35519;BME280;21627;48.216;16.482;2022-10-17T02:44:04;100778.66;;;10.39;100.00
35519;BME280;21627;48.216;16.482;2022-10-17T02:46:33;100779.50;;;10.39;100.00
35519;BME280;21627;48.216;16.482;2022-10-17T02:49:16;100769.91;;;10.31;100.00
35519;BME280;21627;48.216;16.482;2022-10-17T02:52:06;100786.34;;;10.37;100.00
35519;BME280;21627;48.216;16.482;2022-10-17T02:54:47;100786.31;;;10.34;100.00
35519;BME280;21627;48.216;16.482;2022-10-17T03:00:09;100794.84;;;10.30;100.00
35519;BME280;21627;48.216;16.482;2022-10-17T03:02:43;100794.75;;;10.27;100.00
35519;BME280;21627;48.216;16.482;2022-10-17T03:05:21;100788.69;;;10.24;100.00
35519;BME280;21627;48.216;16.482;2022-10-17T03:07:49;100789.50;;;10.23;100.00
35519;BME280;21627;48.216;16.482;2022-10-17T03:10:17;100780.81;;;10.17;100.00
35519;BME280;21627;48.216;16.482;2022-10-17T03:12:44;100766.06;;;10.12;100.00
35519;BME280;21627;48.216;16.482;2022-10-17T03:15:12;100782.56;;;10.18;100.00
35519;BME280;21627;48.216;16.482;2022-10-17T03:17:39;100791.97;;;10.15;100.00
35519;BME280;21627;48.216;16.482;2022-10-17T03:20:07;100797.97;;;10.14;100.00
35519;BME280;21627;48.216;16.482;2022-10-17T03:22:34;100788.38;;;10.07;100.00
35519;BME280;21627;48.216;16.482;2022-10-17T03:25:01;100794.50;;;10.12;100.00
35519;BME280;21627;48.216;16.482;2022-10-17T03:27:28;100799.47;;;10.03;100.00
35519;BME280;21627;48.216;16.482;2022-10-17T03:29:56;100805.53;;;10.05;100.00
35519;BME280;21627;48.216;16.482;2022-10-17T03:32:23;100804.59;;;10.00;100.00
35519;BME280;21627;48.216;16.482;2022-10-17T03:34:50;100805.38;;;9.95;100.00
35519;BME280;21627;48.216;16.482;2022-10-17T03:37:17;100824.44;;;10.02;100.00
35519;BME280;21627;48.216;16.482;2022-10-17T03:39:44;100823.53;;;10.00;100.00
35519;BME280;21627;48.216;16.482;2022-10-17T03:42:11;100826.88;;;9.94;100.00
35519;BME280;21627;48.216;16.482;2022-10-17T03:44:38;100826.88;;;9.94;100.00
35519;BME280;21627;48.216;16.482;2022-10-17T03:47:05;100830.28;;;9.92;100.00
35519;BME280;21627;48.216;16.482;2022-10-17T03:49:37;100831.13;;;9.91;100.00
35519;BME280;21627;48.216;16.482;2022-10-17T03:52:04;100837.13;;;9.90;100.00
35519;BME280;21627;48.216;16.482;2022-10-17T03:54:31;100812.75;;;9.75;100.00
35519;BME280;21627;48.216;16.482;2022-10-17T03:56:58;100836.25;;;9.89;100.00
35519;BME280;21627;48.216;16.482;2022-10-17T03:59:26;100838.84;;;9.89;100.00
35519;BME280;21627;48.216;16.482;2022-10-17T04:01:53;100840.50;;;9.87;100.00
35519;BME280;21627;48.216;16.482;2022-10-17T04:04:20;100843.09;;;9.87;100.00
35519;BME280;21627;48.216;16.482;2022-10-17T04:06:47;100834.28;;;9.78;100.00
35519;BME280;21627;48.216;16.482;2022-10-17T04:09:14;100843.91;;;9.85;100.00
35519;BME280;21627;48.216;16.482;2022-10-17T04:11:41;100849.06;;;9.83;100.00
35519;BME280;21627;48.216;16.482;2022-10-17T04:14:09;100836.03;;;9.79;100.00
35519;BME280;21627;48.216;16.482;2022-10-17T04:16:37;100844.69;;;9.81;100.00
35519;BME280;21627;48.216;16.482;2022-10-17T04:19:04;100860.25;;;9.84;100.00
35519;BME280;21627;48.216;16.482;2022-10-17T04:21:31;100858.53;;;9.84;100.00
35519;BME280;21627;48.216;16.482;2022-10-17T04:23:59;100843.72;;;9.75;100.00
35519;BME280;21627;48.216;16.482;2022-10-17T04:26:29;100841.06;;;9.72;100.00
35519;BME280;21627;48.216;16.482;2022-10-17T04:28:56;100860.19;;;9.81;100.00
35519;BME280;21627;48.216;16.482;2022-10-17T04:31:23;100850.69;;;9.80;100.00
35519;BME280;21627;48.216;16.482;2022-10-17T04:33:50;100853.25;;;9.78;100.00
35519;BME280;21627;48.216;16.482;2022-10-17T04:36:18;100859.34;;;9.82;100.00
35519;BME280;21627;48.216;16.482;2022-10-17T04:38:46;100866.28;;;9.83;100.00
35519;BME280;21627;48.216;16.482;2022-10-17T04:41:16;100870.53;;;9.82;100.00
35519;BME280;21627;48.216;16.482;2022-10-17T04:43:44;100868.84;;;9.83;100.00
35519;BME280;21627;48.216;16.482;2022-10-17T04:46:17;100866.34;;;9.87;100.00
35519;BME280;21627;48.216;16.482;2022-10-17T04:48:44;100875.06;;;9.92;100.00
35519;BME280;21627;48.216;16.482;2022-10-17T04:51:14;100874.34;;;10.00;100.00
35519;BME280;21627;48.216;16.482;2022-10-17T04:53:43;100870.16;;;10.05;100.00
35519;BME280;21627;48.216;16.482;2022-10-17T04:56:17;100869.47;;;10.13;100.00
35519;BME280;21627;48.216;16.482;2022-10-17T04:58:45;100861.72;;;10.13;100.00
35519;BME280;21627;48.216;16.482;2022-10-17T05:01:16;100858.31;;;10.16;100.00
35519;BME280;21627;48.216;16.482;2022-10-17T05:03:44;100879.28;;;10.28;100.00
35519;BME280;21627;48.216;16.482;2022-10-17T05:06:16;100887.09;;;10.33;100.00
35519;BME280;21627;48.216;16.482;2022-10-17T05:08:43;100878.50;;;10.34;100.00
35519;BME280;21627;48.216;16.482;2022-10-17T05:11:24;100875.06;;;10.33;100.00
35519;BME280;21627;48.216;16.482;2022-10-17T05:13:57;100898.53;;;10.44;100.00
35519;BME280;21627;48.216;16.482;2022-10-17T05:16:26;100897.72;;;10.47;100.00
35519;BME280;21627;48.216;16.482;2022-10-17T05:18:55;100891.63;;;10.45;100.00
35519;BME280;21627;48.216;16.482;2022-10-17T05:21:25;100903.84;;;10.52;100.00
35519;BME280;21627;48.216;16.482;2022-10-17T05:23:54;100895.22;;;10.53;100.00
35519;BME280;21627;48.216;16.482;2022-10-17T05:26:22;100891.78;;;10.51;100.00
35519;BME280;21627;48.216;16.482;2022-10-17T05:28:50;100910.88;;;10.59;100.00
35519;BME280;21627;48.216;16.482;2022-10-17T05:31:18;100914.38;;;10.61;100.00
35519;BME280;21627;48.216;16.482;2022-10-17T05:33:45;100917.78;;;10.60;100.00
35519;BME280;21627;48.216;16.482;2022-10-17T05:36:13;100913.47;;;10.59;100.00
35519;BME280;21627;48.216;16.482;2022-10-17T05:38:40;100908.16;;;10.53;100.00
35519;BME280;21627;48.216;16.482;2022-10-17T05:41:08;100929.81;;;10.58;100.00
35519;BME280;21627;48.216;16.482;2022-10-17T05:43:35;100928.03;;;10.55;100.00
35519;BME280;21627;48.216;16.482;2022-10-17T05:46:04;100914.06;;;10.46;100.00
35519;BME280;21627;48.216;16.482;2022-10-17T05:48:33;100932.16;;;10.46;100.00
35519;BME280;21627;48.216;16.482;2022-10-17T05:51:04;100933.94;;;10.48;100.00
35519;BME280;21627;48.216;16.482;2022-10-17T05:53:35;100920.84;;;10.40;100.00
35519;BME280;21627;48.216;16.482;2022-10-17T05:56:06;100948.63;;;10.49;100.00
35519;BME280;21627;48.216;16.482;2022-10-17T05:58:35;100931.22;;;10.42;100.00
35519;BME280;21627;48.216;16.482;2022-10-17T06:01:16;100946.91;;;10.50;100.00
35519;BME280;21627;48.216;16.482;2022-10-17T06:03:44;100948.63;;;10.49;100.00
35519;BME280;21627;48.216;16.482;2022-10-17T06:06:12;100949.44;;;10.47;100.00
35519;BME280;21627;48.216;16.482;2022-10-17T06:08:40;100964.19;;;10.51;100.00
35519;BME280;21627;48.216;16.482;2022-10-17T12:39:42;100933.00;;;23.85;55.41
35519;BME280;21627;48.216;16.482;2022-10-17T12:42:30;100943.03;;;24.01;54.61
35519;BME280;21627;48.216;16.482;2022-10-17T12:44:58;100941.84;;;24.09;53.88
35519;BME280;21627;48.216;16.482;2022-10-17T12:47:37;100935.84;;;24.28;54.63
35519;BME280;21627;48.216;16.482;2022-10-17T12:51:00;100948.59;;;24.40;52.85
35519;BME280;21627;48.216;16.482;2022-10-17T12:54:17;100930.94;;;24.64;53.10
35519;BME280;21627;48.216;16.482;2022-10-17T12:56:46;100938.47;;;24.75;51.87
35519;BME280;21627;48.216;16.482;2022-10-17T12:59:27;100948.97;;;24.76;49.88
35519;BME280;21627;48.216;16.482;2022-10-17T13:01:59;100928.34;;;24.84;50.11
35519;BME280;21627;48.216;16.482;2022-10-17T13:04:28;100935.28;;;24.87;50.04
35519;BME280;21627;48.216;16.482;2022-10-17T13:06:57;100936.22;;;24.86;49.88
35519;BME280;21627;48.216;16.482;2022-10-17T13:09:34;100951.44;;;25.03;49.15
35519;BME280;21627;48.216;16.482;2022-10-17T13:12:03;100932.09;;;24.79;48.70
35519;BME280;21627;48.216;16.482;2022-10-17T13:14:33;100937.78;;;25.12;48.83
35519;BME280;21627;48.216;16.482;2022-10-17T13:17:04;100943.41;;;25.26;48.19
35519;BME280;21627;48.216;16.482;2022-10-17T13:19:44;100932.63;;;25.31;48.05
35519;BME280;21627;48.216;16.482;2022-10-17T13:22:24;100939.13;;;25.24;47.52
35519;BME280;21627;48.216;16.482;2022-10-17T13:25:05;100942.38;;;25.51;47.61
35519;BME280;21627;48.216;16.482;2022-10-17T13:27:34;100936.03;;;25.55;48.00
35519;BME280;21627;48.216;16.482;2022-10-17T13:32:52;100928.94;;;25.35;47.93
35519;BME280;21627;48.216;16.482;2022-10-17T13:35:36;100927.75;;;25.63;46.23
35519;BME280;21627;48.216;16.482;2022-10-17T13:38:28;100926.47;;;25.72;48.94
35519;BME280;21627;48.216;16.482;2022-10-17T13:40:59;100924.22;;;25.62;46.07
35519;BME280;21627;48.216;16.482;2022-10-17T13:43:46;100931.13;;;25.25;45.73
35519;BME280;21627;48.216;16.482;2022-10-17T13:46:31;100934.69;;;25.45;47.98
35519;BME280;21627;48.216;16.482;2022-10-17T13:49:31;100927.09;;;25.58;47.48
35519;BME280;21627;48.216;16.482;2022-10-17T13:52:01;100931.91;;;25.28;45.30
35519;BME280;21627;48.216;16.482;2022-10-17T13:54:40;100932.59;;;25.33;45.10
35519;BME280;21627;48.216;16.482;2022-10-17T13:57:26;100942.63;;;25.24;46.23
35519;BME280;21627;48.216;16.482;2022-10-17T14:00:09;100927.06;;;25.17;46.70
35519;BME280;21627;48.216;16.482;2022-10-17T14:02:41;100935.41;;;25.28;45.31
35519;BME280;21627;48.216;16.482;2022-10-17T14:05:13;100943.22;;;25.31;45.22
35519;BME280;21627;48.216;16.482;2022-10-17T14:07:58;100935.56;;;25.25;44.18
35519;BME280;21627;48.216;16.482;2022-10-17T14:10:46;100942.25;;;25.34;44.80
35519;BME280;21627;48.216;16.482;2022-10-17T14:13:23;100933.56;;;25.30;45.13
35519;BME280;21627;48.216;16.482;2022-10-17T14:15:54;100943.38;;;25.28;44.79
35519;BME280;21627;48.216;16.482;2022-10-17T14:18:32;100940.28;;;25.17;43.61
35519;BME280;21627;48.216;16.482;2022-10-17T14:21:04;100938.81;;;24.88;43.48
35519;BME280;21627;48.216;16.482;2022-10-17T14:24:21;100927.69;;;24.57;45.73
35519;BME280;21627;48.216;16.482;2022-10-17T14:26:57;100949.03;;;24.53;44.62
35519;BME280;21627;48.216;16.482;2022-10-17T14:29:29;100937.47;;;24.32;46.33
35519;BME280;21627;48.216;16.482;2022-10-17T14:32:11;100935.22;;;23.97;44.70
35519;BME280;21627;48.216;16.482;2022-10-17T14:34:40;100926.09;;;23.56;44.92
35519;BME280;21627;48.216;16.482;2022-10-17T14:39:49;100932.13;;;23.35;47.36
35519;BME280;21627;48.216;16.482;2022-10-17T14:42:21;100949.59;;;23.39;47.57
35519;BME280;21627;48.216;16.482;2022-10-17T14:44:51;100946.94;;;23.12;46.54
35519;BME280;21627;48.216;16.482;2022-10-17T14:47:26;100946.16;;;22.80;46.13
35519;BME280;21627;48.216;16.482;2022-10-17T14:52:38;100937.16;;;22.59;48.29
35519;BME280;21627;48.216;16.482;2022-10-17T14:55:27;100928.38;;;22.31;47.37
35519;BME280;21627;48.216;16.482;2022-10-17T14:57:54;100943.13;;;22.36;48.56
35519;BME280;21627;48.216;16.482;2022-10-17T15:00:22;100947.78;;;22.28;49.16
35519;BME280;21627;48.216;16.482;2022-10-17T15:02:51;100927.50;;;21.99;48.76
35519;BME280;21627;48.216;16.482;2022-10-17T15:05:19;100948.63;;;21.97;49.38
35519;BME280;21627;48.216;16.482;2022-10-17T15:07:49;100935.84;;;21.83;50.65
35519;BME280;21627;48.216;16.482;2022-10-17T15:10:36;100949.25;;;21.74;50.07
35519;BME280;21627;48.216;16.482;2022-10-17T15:13:09;100945.00;;;21.70;50.36
35519;BME280;21627;48.216;16.482;2022-10-17T15:15:54;100940.56;;;21.36;50.79
35519;BME280;21627;48.216;16.482;2022-10-17T15:18:21;100945.97;;;21.32;50.06
35519;BME280;21627;48.216;16.482;2022-10-17T15:20:49;100933.16;;;21.18;51.05
35519;BME280;21627;48.216;16.482;2022-10-17T15:23:30;100940.38;;;21.08;50.56
35519;BME280;21627;48.216;16.482;2022-10-17T15:25:58;100948.34;;;21.07;52.58
35519;BME280;21627;48.216;16.482;2022-10-17T15:28:25;100929.56;;;20.85;51.51
35519;BME280;21627;48.216;16.482;2022-10-17T15:30:53;100959.09;;;20.96;51.70
35519;BME280;21627;48.216;16.482;2022-10-17T15:33:20;100940.97;;;20.84;52.40
35519;BME280;21627;48.216;16.482;2022-10-17T15:35:47;100929.97;;;20.68;52.61
35519;BME280;21627;48.216;16.482;2022-10-17T15:38:16;100937.06;;;20.64;52.80
35519;BME280;21627;48.216;16.482;2022-10-17T15:40:43;100947.75;;;20.55;53.12
35519;BME280;21627;48.216;16.482;2022-10-17T15:43:14;100955.78;;;20.47;53.11
35519;BME280;21627;48.216;16.482;2022-10-17T15:45:46;100955.03;;;20.41;53.86
35519;BME280;21627;48.216;16.482;2022-10-17T15:48:20;100953.50;;;20.30;54.19
35519;BME280;21627;48.216;16.482;2022-10-17T15:50:50;100959.16;;;20.12;54.12
35519;BME280;21627;48.216;16.482;2022-10-17T15:53:17;100961.75;;;20.14;53.61
35519;BME280;21627;48.216;16.482;2022-10-17T15:55:45;100968.75;;;20.13;52.66
35519;BME280;21627;48.216;16.482;2022-10-17T15:58:14;100963.69;;;20.04;53.88
35519;BME280;21627;48.216;16.482;2022-10-17T16:00:43;100971.81;;;19.90;53.02
35519;BME280;21627;48.216;16.482;2022-10-17T16:03:11;100957.19;;;19.78;54.41
35519;BME280;21627;48.216;16.482;2022-10-17T16:05:38;100972.16;;;19.73;55.24
35519;BME280;21627;48.216;16.482;2022-10-17T16:08:05;100955.03;;;19.51;55.69
35519;BME280;21627;48.216;16.482;2022-10-17T16:10:33;100971.69;;;19.48;55.88
35519;BME280;21627;48.216;16.482;2022-10-17T16:13:00;100963.03;;;19.43;56.51
35519;BME280;21627;48.216;16.482;2022-10-17T16:15:27;100963.97;;;19.40;56.56
35519;BME280;21627;48.216;16.482;2022-10-17T16:17:56;100956.31;;;19.27;57.33
35519;BME280;21627;48.216;16.482;2022-10-17T16:20:28;100967.66;;;19.27;57.37
35519;BME280;21627;48.216;16.482;2022-10-17T16:22:55;100951.31;;;19.13;57.54
35519;BME280;21627;48.216;16.482;2022-10-17T16:25:28;100962.66;;;19.12;58.75
35519;BME280;21627;48.216;16.482;2022-10-17T16:27:58;100965.47;;;19.01;57.79
35519;BME280;21627;48.216;16.482;2022-10-17T16:30:28;100965.53;;;18.96;58.04
35519;BME280;21627;48.216;16.482;2022-10-17T16:32:56;100971.75;;;18.89;58.31
35519;BME280;21627;48.216;16.482;2022-10-17T16:35:28;100965.63;;;18.89;57.46
35519;BME280;21627;48.216;16.482;2022-10-17T16:38:04;100976.16;;;18.86;57.78
35519;BME280;21627;48.216;16.482;2022-10-17T16:40:31;100976.28;;;18.78;57.87
35519;BME280;21627;48.216;16.482;2022-10-17T16:42:59;100973.66;;;18.76;56.57
35519;BME280;21627;48.216;16.482;2022-10-17T16:45:26;100981.53;;;18.78;56.83
35519;BME280;21627;48.216;16.482;2022-10-17T16:47:54;100978.00;;;18.80;56.18
35519;BME280;21627;48.216;16.482;2022-10-17T16:50:21;100964.28;;;18.60;57.54
35519;BME280;21627;48.216;16.482;2022-10-17T16:52:48;100965.19;;;18.56;57.21
35519;BME280;21627;48.216;16.482;2022-10-17T16:55:16;100979.09;;;18.59;57.77
35519;BME280;21627;48.216;16.482;2022-10-17T16:57:45;100963.69;;;18.40;58.29
35519;BME280;21627;48.216;16.482;2022-10-17T17:00:16;100973.22;;;18.44;58.19
35519;BME280;21627;48.216;16.482;2022-10-17T17:02:45;100979.41;;;18.40;58.31
35519;BME280;21627;48.216;16.482;2022-10-17T17:05:13;100966.41;;;18.30;57.89
35519;BME280;21627;48.216;16.482;2022-10-17T17:07:41;100962.88;;;18.31;57.78
35519;BME280;21627;48.216;16.482;2022-10-17T17:10:09;100977.69;;;18.35;57.67
35519;BME280;21627;48.216;16.482;2022-10-17T17:12:37;100968.22;;;18.25;58.32
35519;BME280;21627;48.216;16.482;2022-10-17T17:15:05;100957.69;;;18.30;57.00
35519;BME280;21627;48.216;16.482;2022-10-17T17:17:32;100973.44;;;18.25;58.53
35519;BME280;21627;48.216;16.482;2022-10-17T17:20:18;100954.38;;;18.15;58.44
35519;BME280;21627;48.216;16.482;2022-10-17T17:22:45;100970.94;;;18.16;59.11
35519;BME280;21627;48.216;16.482;2022-10-17T17:25:13;100969.31;;;18.06;59.98
35519;BME280;21627;48.216;16.482;2022-10-17T17:27:41;100958.94;;;17.97;59.36
35519;BME280;21627;48.216;16.482;2022-10-17T17:30:12;100965.91;;;17.98;59.99
35519;BME280;21627;48.216;16.482;2022-10-17T17:32:40;100963.34;;;17.94;59.74
35519;BME280;21627;48.216;16.482;2022-10-17T17:35:08;100957.16;;;18.02;59.05
35519;BME280;21627;48.216;16.482;2022-10-17T17:37:35;100957.97;;;18.07;58.99
35519;BME280;21627;48.216;16.482;2022-10-17T17:40:04;100959.69;;;18.09;59.75
35519;BME280;21627;48.216;16.482;2022-10-17T17:42:32;100961.50;;;18.03;59.32
35519;BME280;21627;48.216;16.482;2022-10-17T17:45:00;100947.63;;;17.93;60.20
35519;BME280;21627;48.216;16.482;2022-10-17T17:47:28;100960.72;;;17.93;60.82
35519;BME280;21627;48.216;16.482;2022-10-17T17:49:56;100955.59;;;17.84;60.59
35519;BME280;21627;48.216;16.482;2022-10-17T17:52:24;100953.91;;;17.80;60.51
35519;BME280;21627;48.216;16.482;2022-10-17T17:54:56;100962.56;;;17.85;61.59
35519;BME280;21627;48.216;16.482;2022-10-17T17:57:24;100965.22;;;17.82;60.96
35519;BME280;21627;48.216;16.482;2022-10-17T17:59:51;100966.09;;;17.79;61.42
35519;BME280;21627;48.216;16.482;2022-10-17T18:02:18;100972.22;;;17.75;62.41
35519;BME280;21627;48.216;16.482;2022-10-17T18:04:45;100968.78;;;17.71;62.30
35519;BME280;21627;48.216;16.482;2022-10-17T18:07:13;100974.91;;;17.67;63.27
35519;BME280;21627;48.216;16.482;2022-10-17T18:09:41;100970.50;;;17.72;62.24
35519;BME280;21627;48.216;16.482;2022-10-17T18:12:09;100967.09;;;17.63;63.15
35519;BME280;21627;48.216;16.482;2022-10-17T18:14:36;100969.78;;;17.57;64.16
35519;BME280;21627;48.216;16.482;2022-10-17T18:17:04;100966.28;;;17.56;63.97
35519;BME280;21627;48.216;16.482;2022-10-17T18:19:32;100961.97;;;17.50;64.51
35519;BME280;21627;48.216;16.482;2022-10-17T18:22:01;100955.03;;;17.48;64.58
35519;BME280;21627;48.216;16.482;2022-10-17T18:24:29;100968.03;;;17.56;65.01
35519;BME280;21627;48.216;16.482;2022-10-17T18:26:57;100962.91;;;17.45;65.81
35519;BME280;21627;48.216;16.482;2022-10-17T18:29:30;100956.03;;;17.33;65.99
35519;BME280;21627;48.216;16.482;2022-10-17T18:32:01;100962.09;;;17.38;66.27
35519;BME280;21627;48.216;16.482;2022-10-17T18:34:29;100968.16;;;17.43;66.29
35519;BME280;21627;48.216;16.482;2022-10-17T18:36:57;100954.34;;;17.29;66.83
35519;BME280;21627;48.216;16.482;2022-10-17T18:39:26;100968.25;;;17.31;67.25
35519;BME280;21627;48.216;16.482;2022-10-17T18:41:56;100962.19;;;17.27;68.24
35519;BME280;21627;48.216;16.482;2022-10-17T18:44:24;100973.47;;;17.34;68.01
35519;BME280;21627;48.216;16.482;2022-10-17T18:46:55;100973.44;;;17.36;68.30
35519;BME280;21627;48.216;16.482;2022-10-17T18:49:30;100972.63;;;17.30;68.04
35519;BME280;21627;48.216;16.482;2022-10-17T18:51:58;100963.16;;;17.19;69.28
35519;BME280;21627;48.216;16.482;2022-10-17T18:54:26;100970.97;;;17.16;70.06
35519;BME280;21627;48.216;16.482;2022-10-17T18:56:55;100958.81;;;17.15;69.51
35519;BME280;21627;48.216;16.482;2022-10-17T18:59:23;100979.69;;;17.18;70.40
35519;BME280;21627;48.216;16.482;2022-10-17T19:01:51;100962.34;;;17.07;71.50
35519;BME280;21627;48.216;16.482;2022-10-17T19:04:21;100970.19;;;17.09;71.56
35519;BME280;21627;48.216;16.482;2022-10-17T19:06:49;100971.13;;;16.99;72.26
35519;BME280;21627;48.216;16.482;2022-10-17T19:09:17;100973.72;;;17.02;72.82
35519;BME280;21627;48.216;16.482;2022-10-17T19:11:44;100964.22;;;16.92;72.55
35519;BME280;21627;48.216;16.482;2022-10-17T19:14:12;100969.38;;;16.99;72.89
35519;BME280;21627;48.216;16.482;2022-10-17T19:16:49;100973.78;;;16.90;73.25
35519;BME280;21627;48.216;16.482;2022-10-17T19:19:24;100963.38;;;16.80;73.95
35519;BME280;21627;48.216;16.482;2022-10-17T19:21:53;100954.72;;;16.69;74.74
35519;BME280;21627;48.216;16.482;2022-10-17T19:24:26;100974.69;;;16.82;74.72
35519;BME280;21627;48.216;16.482;2022-10-17T19:26:56;100963.44;;;16.71;75.18
35519;BME280;21627;48.216;16.482;2022-10-17T19:29:27;100957.41;;;16.58;75.74
35519;BME280;21627;48.216;16.482;2022-10-17T19:31:57;100970.41;;;16.69;75.50
35519;BME280;21627;48.216;16.482;2022-10-17T19:34:25;100970.41;;;16.67;76.81
35519;BME280;21627;48.216;16.482;2022-10-17T19:36:53;100973.91;;;16.66;76.02
35519;BME280;21627;48.216;16.482;2022-10-17T19:39:22;100976.53;;;16.62;76.03
35519;BME280;21627;48.216;16.482;2022-10-17T19:41:52;100978.28;;;16.61;75.88
35519;BME280;21627;48.216;16.482;2022-10-17T19:44:19;100982.66;;;16.56;76.45
35519;BME280;21627;48.216;16.482;2022-10-17T19:46:46;100967.00;;;16.53;76.23
35519;BME280;21627;48.216;16.482;2022-10-17T19:49:16;100978.28;;;16.55;76.94
35519;BME280;21627;48.216;16.482;2022-10-17T19:51:43;100982.69;;;16.52;77.99
35519;BME280;21627;48.216;16.482;2022-10-17T19:54:12;100965.28;;;16.51;77.01
35519;BME280;21627;48.216;16.482;2022-10-17T19:56:41;100978.34;;;16.49;77.37
35519;BME280;21627;48.216;16.482;2022-10-17T19:59:13;100967.94;;;16.41;77.54